createdAt,value
2022-12-04T00:00:01.001Z,35.95
2022-12-04T00:02:27.712Z,36.75
2022-12-04T00:04:54.583Z,38.28
2022-12-04T00:07:21.253Z,38.13
2022-12-04T00:09:47.907Z,36.67
2022-12-04T00:12:14.629Z,36.30
2022-12-04T00:15:16.551Z,36.00
2022-12-04T00:17:28.092Z,37.03
2022-12-04T00:19:55.064Z,38.53
2022-12-04T00:22:21.945Z,35.88
2022-12-04T00:24:48.768Z,36.85
2022-12-04T00:27:15.531Z,39.30
2022-12-04T00:29:42.254Z,35.78
2022-12-04T00:32:09.529Z,37.17
2022-12-04T00:34:36.229Z,37.50
2022-12-04T00:37:02.915Z,36.55
2022-12-04T00:39:29.725Z,37.60
2022-12-04T00:41:56.517Z,35.92
2022-12-04T00:44:23.154Z,38.90
2022-12-04T00:46:49.830Z,37.42
2022-12-04T00:49:16.482Z,36.13
2022-12-04T00:51:43.217Z,35.58
2022-12-04T00:54:09.908Z,37.38
2022-12-04T00:56:36.613Z,36.47
2022-12-04T00:59:03.711Z,38.85
2022-12-04T01:01:31.033Z,36.92
2022-12-04T01:03:57.880Z,38.10
2022-12-04T01:06:30.396Z,36.70
2022-12-04T01:08:58.031Z,37.65
2022-12-04T01:11:26.607Z,38.90
2022-12-04T01:13:53.374Z,40.63
2022-12-04T01:16:21.876Z,37.58
2022-12-04T01:18:49.193Z,38.88
2022-12-04T01:21:16.676Z,37.42
2022-12-04T01:23:44.240Z,37.88
2022-12-04T01:26:11.365Z,40.90
2022-12-04T01:28:39.076Z,38.20
2022-12-04T01:31:11.151Z,40.60
2022-12-04T01:33:38.375Z,39.17
2022-12-04T01:36:07.453Z,39.75
2022-12-04T01:38:35.413Z,39.90
2022-12-04T01:41:02.907Z,40.45
2022-12-04T01:43:32.009Z,39.17
2022-12-04T01:46:00.514Z,38.63
2022-12-04T01:48:41.850Z,39.55
2022-12-04T01:51:15.653Z,39.08
2022-12-04T01:53:44.568Z,39.45
2022-12-04T01:56:11.578Z,41.45
2022-12-04T01:58:42.206Z,41.20
2022-12-04T02:01:09.650Z,41.85
2022-12-04T02:03:37.450Z,39.22
2022-12-04T02:06:04.327Z,40.42
2022-12-04T02:08:31.210Z,40.28
2022-12-04T02:11:13.138Z,37.90
2022-12-04T02:13:52.864Z,40.28
2022-12-04T02:16:55.014Z,41.35
2022-12-04T02:19:30.995Z,39.78
2022-12-04T02:22:00.236Z,41.15
2022-12-04T02:24:48.402Z,40.85
2022-12-04T02:27:22.622Z,40.13
2022-12-04T02:30:01.665Z,37.80
2022-12-04T02:32:38.693Z,40.75
2022-12-04T02:35:10.985Z,40.60
2022-12-04T02:37:40.325Z,40.22
2022-12-04T02:40:19.611Z,38.20
2022-12-04T02:43:01.893Z,41.17
2022-12-04T02:45:33.672Z,38.13
2022-12-04T02:48:02.577Z,39.13
2022-12-04T02:50:30.352Z,39.53
2022-12-04T02:53:25.014Z,38.75
2022-12-04T02:55:55.697Z,39.90
2022-12-04T02:58:29.767Z,39.97
2022-12-04T03:00:58.313Z,39.70
2022-12-04T03:03:27.637Z,38.38
2022-12-04T03:06:03.340Z,39.50
2022-12-04T03:08:35.067Z,40.17
2022-12-04T03:11:02.077Z,40.35
2022-12-04T03:13:46.965Z,38.45
2022-12-04T03:16:17.901Z,40.63
2022-12-04T03:18:51.896Z,40.58
2022-12-04T03:21:21.506Z,39.42
2022-12-04T03:23:53.951Z,39.65
2022-12-04T03:26:39.003Z,39.47
2022-12-04T03:29:08.362Z,37.63
2022-12-04T03:32:00.081Z,40.28
2022-12-04T03:34:33.954Z,39.72
2022-12-04T03:37:04.691Z,40.13
2022-12-04T03:39:38.131Z,40.50
2022-12-04T03:42:09.325Z,40.10
2022-12-04T03:44:41.645Z,42.08
2022-12-04T03:47:13.598Z,39.58
2022-12-04T03:49:52.389Z,40.58
2022-12-04T03:52:30.351Z,38.85
2022-12-04T03:55:06.852Z,39.38
2022-12-04T03:57:38.038Z,40.70
2022-12-04T04:00:14.031Z,41.10
2022-12-04T04:02:44.559Z,40.08
2022-12-04T04:05:12.405Z,39.30
2022-12-04T04:07:46.355Z,39.65
2022-12-04T04:10:17.129Z,41.45
2022-12-04T04:13:11.172Z,41.28
2022-12-04T04:16:02.308Z,39.75
2022-12-04T04:18:49.192Z,40.35
2022-12-04T04:21:37.963Z,39.60
2022-12-04T04:24:14.695Z,40.30
2022-12-04T04:26:49.043Z,38.60
2022-12-04T04:29:15.772Z,39.83
2022-12-04T04:31:43.758Z,39.15
2022-12-04T04:34:24.827Z,37.83
2022-12-04T04:36:59.509Z,39.08
2022-12-04T04:39:58.340Z,39.55
2022-12-04T04:42:31.091Z,38.90
2022-12-04T04:45:16.183Z,40.10
2022-12-04T04:47:48.916Z,38.78
2022-12-04T04:50:16.490Z,38.78
2022-12-04T04:52:48.627Z,39.17
2022-12-04T04:55:16.784Z,39.13
2022-12-04T04:57:43.920Z,39.70
2022-12-04T05:00:17.079Z,37.63
2022-12-04T05:02:44.929Z,39.88
2022-12-04T05:05:12.788Z,38.60
2022-12-04T05:07:39.619Z,37.80
2022-12-04T05:10:07.046Z,37.40
2022-12-04T05:12:33.681Z,39.05
2022-12-04T05:15:00.457Z,38.10
2022-12-04T05:17:27.095Z,40.05
2022-12-04T05:19:54.382Z,39.30
2022-12-04T05:22:27.068Z,38.53
2022-12-04T05:24:54.185Z,37.88
2022-12-04T05:27:21.863Z,38.97
2022-12-04T05:29:48.769Z,37.78
2022-12-04T05:32:15.667Z,37.45
2022-12-04T05:34:42.543Z,38.35
2022-12-04T05:37:09.183Z,40.53
2022-12-04T05:39:35.928Z,38.22
2022-12-04T05:42:02.680Z,38.20
2022-12-04T05:44:29.336Z,38.42
2022-12-04T05:46:56.072Z,40.13
2022-12-04T05:49:22.844Z,36.92
2022-12-04T05:51:50.733Z,37.60
2022-12-04T05:54:19.073Z,38.95
2022-12-04T05:56:46.148Z,39.75
2022-12-04T05:59:12.824Z,39.35
2022-12-04T06:01:39.465Z,38.75
2022-12-04T06:04:06.145Z,38.30
2022-12-04T06:06:32.963Z,39.70
2022-12-04T06:09:00.782Z,38.20
2022-12-04T06:11:29.490Z,37.30
2022-12-04T06:13:56.823Z,36.35
2022-12-04T06:16:29.293Z,39.58
2022-12-04T06:18:58.785Z,40.33
2022-12-04T06:21:27.850Z,38.78
2022-12-04T06:23:55.113Z,41.00
2022-12-04T06:26:22.822Z,40.60
2022-12-04T06:28:49.487Z,40.40
2022-12-04T06:31:17.409Z,39.88
2022-12-04T06:33:44.073Z,38.08
2022-12-04T06:36:13.279Z,37.08
2022-12-04T06:38:40.596Z,36.40
2022-12-04T06:41:09.060Z,36.92
2022-12-04T06:43:35.708Z,40.00
2022-12-04T06:46:06.503Z,37.60
2022-12-04T06:48:33.954Z,38.45
2022-12-04T06:51:09.332Z,38.45
2022-12-04T06:53:36.182Z,38.80
2022-12-04T06:56:09.076Z,37.70
2022-12-04T06:58:35.822Z,37.53
2022-12-04T07:01:12.518Z,40.28
2022-12-04T07:03:39.513Z,38.50
2022-12-04T07:06:12.976Z,37.50
2022-12-04T07:08:39.745Z,36.95
2022-12-04T07:11:06.600Z,38.28
2022-12-04T07:13:33.624Z,35.50
2022-12-04T07:16:02.831Z,37.42
2022-12-04T07:18:30.962Z,38.58
2022-12-04T07:20:57.768Z,37.33
2022-12-04T07:23:25.036Z,36.72
2022-12-04T07:25:52.313Z,36.05
2022-12-04T07:28:19.028Z,37.05
2022-12-04T07:30:45.871Z,36.47
2022-12-04T07:33:13.979Z,36.38
2022-12-04T07:35:40.708Z,36.20
2022-12-04T07:38:07.654Z,38.03
2022-12-04T07:40:34.351Z,37.28
2022-12-04T07:43:01.142Z,39.88
2022-12-04T07:45:27.913Z,37.20
2022-12-04T07:47:54.659Z,35.72
2022-12-04T07:50:21.533Z,37.72
2022-12-04T07:52:48.404Z,36.08
2022-12-04T07:55:20.123Z,35.03
2022-12-04T07:57:49.657Z,36.90
2022-12-04T08:00:16.693Z,37.30
2022-12-04T08:02:43.430Z,35.47
2022-12-04T08:05:10.474Z,37.78
2022-12-04T08:07:37.252Z,37.35
2022-12-04T08:10:04.890Z,35.47
2022-12-04T08:12:33.275Z,36.35
2022-12-04T08:14:59.990Z,36.67
2022-12-04T08:17:26.883Z,36.58
2022-12-04T08:19:53.855Z,34.90
2022-12-04T08:22:25.034Z,37.05
2022-12-04T08:24:52.194Z,34.03
2022-12-04T08:27:19.025Z,35.15
2022-12-04T08:29:45.975Z,37.10
2022-12-04T08:32:12.805Z,36.50
2022-12-04T08:34:39.720Z,35.25
2022-12-04T08:37:06.615Z,36.25
2022-12-04T08:39:33.574Z,34.83
2022-12-04T08:42:00.325Z,36.47
2022-12-04T08:44:27.337Z,34.38
2022-12-04T08:46:54.200Z,35.00
2022-12-04T08:49:21.317Z,34.72
2022-12-04T08:51:48.280Z,35.08
2022-12-04T08:54:15.161Z,36.08
2022-12-04T08:56:42.099Z,35.45
2022-12-04T08:59:12.429Z,34.00
2022-12-04T09:01:39.655Z,36.90
2022-12-04T09:04:06.598Z,34.47
2022-12-04T09:06:33.412Z,35.88
2022-12-04T09:09:01.646Z,34.05
2022-12-04T09:11:29.845Z,35.05
2022-12-04T09:13:56.561Z,35.05
2022-12-04T09:16:24.969Z,33.20
2022-12-04T09:18:52.159Z,35.45
2022-12-04T09:21:20.557Z,34.42
2022-12-04T09:23:47.849Z,35.05
2022-12-04T09:26:32.424Z,35.90
2022-12-04T09:29:01.077Z,34.95
2022-12-04T09:31:28.451Z,36.47
2022-12-04T09:33:55.302Z,37.30
2022-12-04T09:36:22.550Z,34.90
2022-12-04T09:38:50.986Z,35.00
2022-12-04T09:41:36.520Z,35.22
2022-12-04T09:44:06.975Z,34.78
2022-12-04T09:46:38.154Z,34.10
2022-12-04T09:49:15.835Z,35.38
2022-12-04T09:51:42.874Z,34.88
2022-12-04T09:54:18.395Z,35.92
2022-12-04T09:56:51.183Z,52.53
2022-12-04T09:59:23.400Z,71.03
2022-12-04T10:02:16.681Z,69.18
2022-12-04T10:04:43.504Z,48.08
2022-12-04T10:07:21.897Z,38.80
2022-12-04T10:10:10.941Z,38.88
2022-12-04T10:12:55.696Z,36.97
2022-12-04T10:15:26.486Z,39.28
2022-12-04T10:18:15.391Z,43.35
2022-12-04T10:20:59.030Z,39.00
2022-12-04T10:23:53.112Z,34.55
2022-12-04T10:26:31.130Z,35.25
2022-12-04T10:29:03.906Z,36.10
2022-12-04T10:31:31.684Z,34.92
2022-12-04T10:34:06.172Z,36.42
2022-12-04T10:36:35.015Z,34.67
2022-12-04T10:39:16.767Z,34.55
2022-12-04T10:41:47.279Z,34.78
2022-12-04T10:44:17.074Z,35.63
2022-12-04T10:46:46.382Z,36.58
2022-12-04T10:49:24.435Z,34.85
2022-12-04T10:51:52.056Z,32.55
2022-12-04T10:54:24.438Z,34.25
2022-12-04T10:56:59.686Z,34.40
2022-12-04T10:59:27.262Z,34.03
2022-12-04T11:02:06.653Z,32.67
2022-12-04T11:04:35.351Z,34.63
2022-12-04T11:07:05.196Z,33.40
2022-12-04T11:09:32.770Z,32.63
2022-12-04T11:12:18.705Z,35.03
2022-12-04T11:14:47.402Z,32.22
2022-12-04T11:17:19.543Z,33.45
2022-12-04T11:19:47.455Z,32.13
2022-12-04T11:22:16.839Z,32.70
2022-12-04T11:24:43.848Z,32.25
2022-12-04T11:27:21.489Z,33.45
2022-12-04T11:29:50.412Z,32.13
2022-12-04T11:32:22.548Z,32.38
2022-12-04T11:34:52.079Z,32.38
2022-12-04T11:37:22.525Z,32.95
2022-12-04T11:39:50.254Z,32.55
2022-12-04T11:42:25.774Z,32.08
2022-12-04T11:44:55.941Z,33.17
2022-12-04T11:47:26.478Z,32.90
2022-12-04T11:50:14.423Z,33.65
2022-12-04T11:53:02.864Z,33.58
2022-12-04T11:55:43.735Z,31.98
2022-12-04T11:58:29.434Z,30.77
2022-12-04T12:00:59.374Z,31.92
2022-12-04T12:03:59.665Z,32.58
2022-12-04T12:06:35.697Z,31.92
2022-12-04T12:09:27.488Z,31.42
2022-12-04T12:12:42.617Z,32.95
2022-12-04T12:15:34.104Z,32.33
2022-12-04T12:18:37.719Z,30.70
2022-12-04T12:21:10.648Z,32.55
2022-12-04T12:23:44.006Z,29.33
2022-12-04T12:26:18.993Z,30.92
2022-12-04T12:29:10.460Z,30.27
2022-12-04T12:31:43.225Z,31.10
2022-12-04T12:34:38.607Z,29.42
2022-12-04T12:37:12.845Z,28.52
2022-12-04T12:39:41.804Z,29.17
2022-12-04T12:42:17.925Z,29.42
2022-12-04T12:45:03.365Z,28.60
2022-12-04T12:47:37.017Z,28.23
2022-12-04T12:50:09.949Z,29.13
2022-12-04T12:53:01.579Z,28.60
2022-12-04T12:55:36.347Z,29.02
2022-12-04T12:58:29.745Z,29.58
2022-12-04T13:01:05.308Z,30.02
2022-12-04T13:03:41.342Z,29.27
2022-12-04T13:06:13.929Z,29.33
2022-12-04T13:08:53.009Z,28.13
2022-12-04T13:11:24.691Z,30.33
2022-12-04T13:13:57.318Z,28.80
2022-12-04T13:16:27.605Z,29.10
2022-12-04T13:19:13.421Z,29.83
2022-12-04T13:22:19.048Z,28.38
2022-12-04T13:25:05.180Z,29.23
2022-12-04T13:27:50.503Z,30.42
2022-12-04T13:30:21.895Z,28.80
2022-12-04T13:33:03.497Z,29.10
2022-12-04T13:35:56.863Z,30.65
2022-12-04T13:38:58.114Z,30.48
2022-12-04T13:41:26.768Z,28.73
2022-12-04T13:43:55.682Z,31.63
2022-12-04T13:46:27.902Z,30.75
2022-12-04T13:48:55.867Z,30.52
2022-12-04T13:51:40.805Z,29.83
2022-12-04T13:54:13.562Z,30.30
2022-12-04T13:56:42.834Z,30.27
2022-12-04T13:59:28.289Z,30.70
2022-12-04T14:01:58.031Z,28.17
2022-12-04T14:04:30.297Z,31.45
2022-12-04T14:06:59.838Z,30.55
2022-12-04T14:09:33.689Z,31.15
2022-12-04T14:12:02.655Z,29.13
2022-12-04T14:14:36.912Z,30.52
2022-12-04T14:17:04.739Z,31.15
2022-12-04T14:19:35.959Z,29.73
2022-12-04T14:22:03.774Z,28.90
2022-12-04T14:24:38.550Z,30.02
2022-12-04T14:28:00.382Z,37.28
2022-12-04T14:30:48.086Z,31.20
2022-12-04T14:33:21.784Z,38.58
2022-12-04T14:35:53.826Z,31.77
2022-12-04T14:38:21.819Z,31.50
2022-12-04T14:40:50.996Z,31.95
2022-12-04T14:43:20.589Z,36.35
2022-12-04T14:46:01.594Z,38.65
2022-12-04T14:48:49.065Z,35.38
2022-12-04T14:51:23.155Z,41.42
2022-12-04T14:54:17.845Z,42.45
2022-12-04T14:56:52.372Z,45.17
2022-12-04T14:59:25.475Z,53.28
2022-12-04T15:01:59.732Z,43.00
2022-12-04T15:04:29.790Z,45.08
2022-12-04T15:07:00.352Z,42.45
2022-12-04T15:09:47.195Z,46.40
2022-12-04T15:12:35.738Z,48.40
2022-12-04T15:15:05.351Z,39.00
2022-12-04T15:17:32.218Z,41.08
2022-12-04T15:20:11.704Z,34.80
2022-12-04T15:22:38.969Z,33.08
2022-12-04T15:25:06.361Z,33.13
2022-12-04T15:27:33.349Z,35.38
2022-12-04T15:30:01.224Z,34.47
2022-12-04T15:32:31.351Z,33.53
2022-12-04T15:35:05.236Z,38.55
2022-12-04T15:37:32.970Z,35.22
2022-12-04T15:40:00.069Z,34.67
2022-12-04T15:42:29.994Z,40.15
2022-12-04T15:45:01.446Z,43.72
2022-12-04T15:47:36.687Z,39.00
2022-12-04T15:50:09.324Z,37.83
2022-12-04T15:52:36.659Z,36.60
2022-12-04T15:55:07.948Z,46.25
2022-12-04T15:57:37.192Z,41.90
2022-12-04T16:00:06.882Z,57.17
2022-12-04T16:02:41.089Z,53.08
2022-12-04T16:05:35.159Z,58.83
2022-12-04T16:08:24.762Z,38.20
2022-12-04T16:11:18.108Z,33.17
2022-12-04T16:13:45.097Z,38.47
2022-12-04T16:16:15.798Z,38.47
2022-12-04T16:18:43.473Z,36.15
2022-12-04T16:21:17.686Z,41.17
2022-12-04T16:23:44.657Z,40.95
2022-12-04T16:26:13.350Z,40.40
2022-12-04T16:28:41.157Z,40.08
2022-12-04T16:31:10.939Z,46.90
2022-12-04T16:33:37.976Z,38.75
2022-12-04T16:36:04.924Z,41.17
2022-12-04T16:38:31.951Z,39.17
2022-12-04T16:40:58.868Z,45.67
2022-12-04T16:43:25.817Z,58.80
2022-12-04T16:45:54.233Z,39.80
2022-12-04T16:48:21.330Z,40.88
2022-12-04T16:50:48.397Z,47.42
2022-12-04T16:53:17.504Z,38.88
2022-12-04T16:55:47.055Z,38.42
2022-12-04T16:58:13.984Z,42.45
2022-12-04T17:00:43.720Z,48.42
2022-12-04T17:03:19.228Z,43.35
2022-12-04T17:05:46.370Z,39.20
2022-12-04T17:08:13.441Z,45.70
2022-12-04T17:10:40.325Z,40.88
2022-12-04T17:13:07.075Z,108.40
2022-12-04T17:15:34.159Z,69.85
2022-12-04T17:18:04.701Z,49.47
2022-12-04T17:20:34.213Z,54.28
2022-12-04T17:23:00.944Z,44.50
2022-12-04T17:25:28.035Z,43.67
2022-12-04T17:27:54.753Z,39.25
2022-12-04T17:30:21.462Z,56.75
2022-12-04T17:32:49.363Z,44.30
2022-12-04T17:35:16.175Z,56.55
2022-12-04T17:37:43.105Z,48.88
2022-12-04T17:40:11.333Z,45.70
2022-12-04T17:42:37.977Z,46.85
2022-12-04T17:45:05.341Z,42.83
2022-12-04T17:47:32.222Z,49.25
2022-12-04T17:49:59.045Z,62.22
2022-12-04T17:52:25.792Z,51.50
2022-12-04T17:54:52.598Z,40.53
2022-12-04T17:57:19.840Z,43.80
2022-12-04T17:59:46.808Z,47.97
2022-12-04T18:02:13.683Z,53.40
2022-12-04T18:04:40.763Z,42.13
2022-12-04T18:07:08.075Z,64.38
2022-12-04T18:09:35.143Z,45.25
2022-12-04T18:12:02.229Z,42.80
2022-12-04T18:14:29.920Z,51.95
2022-12-04T18:16:57.874Z,42.45
2022-12-04T18:19:27.350Z,45.30
2022-12-04T18:21:55.084Z,46.88
2022-12-04T18:24:23.131Z,43.05
2022-12-04T18:26:50.892Z,44.40
2022-12-04T18:29:20.749Z,53.08
2022-12-04T18:31:48.725Z,73.78
2022-12-04T18:34:15.984Z,44.05
2022-12-04T18:36:45.643Z,40.65
2022-12-04T18:39:16.433Z,42.90
2022-12-04T18:41:43.476Z,46.00
2022-12-04T18:44:11.323Z,60.08
2022-12-04T18:46:38.397Z,51.53
2022-12-04T18:49:05.411Z,40.53
2022-12-04T18:51:34.821Z,48.95
2022-12-04T18:54:08.675Z,45.45
2022-12-04T18:56:35.917Z,42.67
2022-12-04T18:59:16.917Z,42.60
2022-12-04T19:01:44.239Z,41.45
2022-12-04T19:04:12.566Z,50.10
2022-12-04T19:06:45.216Z,45.03
2022-12-04T19:09:15.078Z,41.03
2022-12-04T19:11:41.985Z,43.30
2022-12-04T19:14:20.784Z,41.95
2022-12-04T19:16:50.172Z,41.20
2022-12-04T19:19:17.257Z,46.40
2022-12-04T19:21:44.595Z,43.90
2022-12-04T19:24:11.682Z,42.63
2022-12-04T19:26:39.116Z,42.05
2022-12-04T19:29:07.030Z,44.83
2022-12-04T19:31:36.369Z,44.30
2022-12-04T19:34:06.314Z,46.47
2022-12-04T19:36:34.728Z,39.25
2022-12-04T19:39:02.059Z,40.78
2022-12-04T19:41:30.911Z,39.65
2022-12-04T19:43:59.814Z,41.58
2022-12-04T19:46:29.229Z,47.15
2022-12-04T19:49:01.672Z,46.60
2022-12-04T19:51:32.141Z,50.15
2022-12-04T19:54:00.998Z,61.38
2022-12-04T19:56:29.415Z,67.38
2022-12-04T19:58:59.315Z,60.45
2022-12-04T20:01:29.533Z,53.97
2022-12-04T20:03:56.910Z,58.30
2022-12-04T20:06:27.473Z,64.47
2022-12-04T20:08:57.774Z,45.00
2022-12-04T20:11:25.212Z,39.92
2022-12-04T20:13:55.683Z,40.53
2022-12-04T20:16:27.756Z,40.08
2022-12-04T20:18:54.982Z,38.17
2022-12-04T20:21:26.381Z,38.53
2022-12-04T20:23:54.486Z,38.65
2022-12-04T20:26:28.155Z,43.28
2022-12-04T20:28:56.633Z,41.55
2022-12-04T20:31:28.735Z,37.20
2022-12-04T20:33:59.978Z,40.72
2022-12-04T20:36:28.328Z,41.83
2022-12-04T20:38:58.738Z,43.30
2022-12-04T20:41:27.952Z,39.85
2022-12-04T20:43:55.774Z,37.28
2022-12-04T20:46:24.905Z,36.03
2022-12-04T20:48:53.763Z,38.03
2022-12-04T20:51:25.592Z,41.45
2022-12-04T20:53:54.419Z,38.80
2022-12-04T20:56:26.060Z,37.50
2022-12-04T20:58:54.136Z,37.90
2022-12-04T21:01:21.029Z,36.45
2022-12-04T21:03:47.886Z,36.13
2022-12-04T21:06:20.247Z,37.90
2022-12-04T21:08:54.151Z,36.97
2022-12-04T21:11:42.321Z,36.80
2022-12-04T21:14:34.655Z,54.38
2022-12-04T21:17:02.207Z,51.28
2022-12-04T21:19:29.342Z,75.05
2022-12-04T21:21:56.470Z,102.63
2022-12-04T21:24:24.401Z,82.30
2022-12-04T21:26:51.248Z,82.43
2022-12-04T21:29:19.311Z,129.40
2022-12-04T21:31:48.595Z,139.32
2022-12-04T21:34:17.091Z,85.70
2022-12-04T21:36:44.178Z,80.35
2022-12-04T21:39:11.088Z,50.80
2022-12-04T21:41:56.430Z,42.55
2022-12-04T21:44:23.294Z,40.25
2022-12-04T21:46:50.451Z,37.95
2022-12-04T21:49:18.377Z,38.17
2022-12-04T21:51:57.301Z,38.35
2022-12-04T21:54:26.457Z,37.38
2022-12-04T21:56:53.129Z,34.50
2022-12-04T21:59:19.942Z,36.10
2022-12-04T22:01:46.732Z,34.80
2022-12-04T22:04:13.765Z,37.78
2022-12-04T22:06:40.764Z,36.53
2022-12-04T22:09:09.002Z,35.53
2022-12-04T22:11:36.435Z,36.42
2022-12-04T22:14:03.517Z,35.80
2022-12-04T22:16:31.330Z,36.17
2022-12-04T22:19:00.270Z,34.75
2022-12-04T22:21:28.136Z,36.58
2022-12-04T22:23:59.416Z,36.95
2022-12-04T22:26:27.594Z,35.53
2022-12-04T22:28:54.618Z,35.33
2022-12-04T22:31:27.669Z,33.92
2022-12-04T22:33:56.540Z,34.70
2022-12-04T22:36:26.362Z,37.97
2022-12-04T22:39:10.535Z,36.63
2022-12-04T22:41:38.529Z,37.05
2022-12-04T22:44:06.255Z,35.67
2022-12-04T22:46:33.740Z,35.15
2022-12-04T22:49:00.768Z,35.95
2022-12-04T22:51:28.277Z,36.45
2022-12-04T22:53:57.441Z,34.72
2022-12-04T22:56:31.715Z,36.35
2022-12-04T22:58:59.696Z,34.92
2022-12-04T23:01:31.989Z,36.63
2022-12-04T23:03:59.376Z,37.58
2022-12-04T23:06:28.202Z,38.30
2022-12-04T23:09:06.692Z,36.85
2022-12-04T23:11:33.677Z,35.42
2022-12-04T23:14:02.469Z,37.50
2022-12-04T23:16:30.888Z,36.72
2022-12-04T23:18:58.182Z,35.90
2022-12-04T23:21:25.238Z,37.08
2022-12-04T23:23:53.504Z,36.67
2022-12-04T23:26:23.474Z,34.08
2022-12-04T23:28:50.115Z,38.08
2022-12-04T23:31:17.026Z,36.97
2022-12-04T23:33:43.856Z,37.10
2022-12-04T23:36:11.749Z,36.20
2022-12-04T23:38:39.641Z,36.60
2022-12-04T23:41:16.561Z,36.97
2022-12-04T23:43:44.225Z,37.58
2022-12-04T23:46:13.040Z,35.90
2022-12-04T23:48:40.447Z,36.45
2022-12-04T23:51:07.943Z,37.13
2022-12-04T23:53:34.969Z,35.97
2022-12-04T23:56:28.097Z,35.70
2022-12-04T23:58:56.757Z,35.78
